Time;durP1;ratioP1;P1;durP2;ratioP2;P2;SDS_P1;SDS_P2;PMS_P1;PMS_P2;Temp;Humidity;BMP_temperature;BMP_pressure;BME280_temperature;BME280_humidity;BME280_pressure;Samples;Min_cycle;Max_cycle;Signal;HPM_P1;HPM_P2
2023/06/17 00:01:15;;;;;;;9.15;7.72;;;;;;;18.74;85.92;101407.44;6230956;28;20504;-68
2023/06/17 00:04:36;;;;;;;8.55;7.75;;;;;;;18.71;86.03;101410.50;6224875;28;20468;-68
2023/06/17 00:07:57;;;;;;;11.88;8.88;;;;;;;18.57;86.00;101415.84;6229940;28;20219;-68
2023/06/17 00:11:20;;;;;;;12.43;9.30;;;;;;;18.78;86.09;101410.66;6218594;28;20240;-67
2023/06/17 00:14:42;;;;;;;9.90;8.98;;;;;;;18.82;85.63;101410.13;6224356;28;20235;-69
2023/06/17 00:18:03;;;;;;;13.38;10.10;;;;;;;18.64;86.00;101414.97;6242115;28;20259;-69
2023/06/17 00:21:24;;;;;;;18.05;13.30;;;;;;;18.60;86.32;101410.03;6227129;28;20235;-68
2023/06/17 00:24:45;;;;;;;18.10;13.55;;;;;;;18.46;86.28;101410.78;6234439;28;20232;-68
2023/06/17 00:28:07;;;;;;;15.70;10.77;;;;;;;18.59;86.58;101416.53;6245950;28;20545;-68
2023/06/17 00:31:28;;;;;;;14.27;11.10;;;;;;;18.62;86.45;101410.72;6218936;28;20250;-69
2023/06/17 00:34:49;;;;;;;16.02;10.68;;;;;;;18.45;86.83;101407.19;6227136;28;20232;-68
2023/06/17 00:38:10;;;;;;;17.10;12.75;;;;;;;18.55;86.96;101409.69;6216677;28;20369;-69
2023/06/17 00:41:31;;;;;;;13.25;11.35;;;;;;;18.63;86.69;101402.34;6240572;28;21410;-68
2023/06/17 00:44:53;;;;;;;14.02;11.23;;;;;;;18.73;86.23;101408.44;6223817;28;20759;-69
2023/06/17 00:48:14;;;;;;;12.63;11.07;;;;;;;18.78;85.69;101399.72;6229080;28;20220;-68
2023/06/17 00:51:36;;;;;;;12.63;11.48;;;;;;;18.73;85.79;101400.25;6240628;28;20220;-69
2023/06/17 00:54:58;;;;;;;22.00;13.13;;;;;;;18.64;85.49;101409.53;6221734;28;20232;-69
2023/06/17 00:58:19;;;;;;;13.68;12.38;;;;;;;18.66;85.70;101402.00;6227300;28;21463;-68
2023/06/17 01:01:41;;;;;;;14.60;10.40;;;;;;;18.58;85.77;101404.75;6217952;28;20573;-68
2023/06/17 01:05:04;;;;;;;16.75;11.55;;;;;;;18.57;85.52;101400.31;6227564;28;20621;-68
2023/06/17 01:08:33;;;;;;;12.02;10.57;;;;;;;18.54;85.66;101397.94;6239942;28;20240;-68
2023/06/17 01:11:58;;;;;;;12.35;11.10;;;;;;;18.56;85.64;101397.75;6234455;28;20322;-67
2023/06/17 01:15:20;;;;;;;12.88;11.57;;;;;;;18.61;85.79;101404.41;6220307;28;20357;-68
2023/06/17 01:18:48;;;;;;;13.02;11.70;;;;;;;18.63;85.40;101385.13;6231839;28;20232;-68
2023/06/17 01:22:14;;;;;;;14.98;13.40;;;;;;;18.71;85.18;101391.38;6224254;28;20513;-68
2023/06/17 01:25:37;;;;;;;17.50;12.45;;;;;;;18.70;84.99;101384.22;6234344;28;20235;-70
2023/06/17 01:28:59;;;;;;;16.25;12.15;;;;;;;18.75;84.85;101391.91;6211419;28;20247;-69
2023/06/17 01:32:21;;;;;;;12.48;11.25;;;;;;;18.78;84.98;101388.81;6230533;28;20236;-68
2023/06/17 01:35:53;;;;;;;13.77;11.93;;;;;;;18.82;84.75;101388.28;6242734;28;20823;-69
2023/06/17 01:39:19;;;;;;;16.80;14.55;;;;;;;18.77;84.79;101382.50;6237955;28;20232;-70
2023/06/17 01:42:46;;;;;;;20.20;14.38;;;;;;;18.53;85.14;101378.97;6234875;28;20660;-69
2023/06/17 01:46:08;;;;;;;15.98;12.70;;;;;;;18.47;85.14;101382.41;6239815;28;20228;-69
2023/06/17 01:49:29;;;;;;;19.15;13.48;;;;;;;18.49;85.60;101386.69;6234338;28;20949;-69
2023/06/17 01:52:50;;;;;;;13.70;11.93;;;;;;;18.46;85.75;101386.19;6236784;28;20236;-69
2023/06/17 01:56:11;;;;;;;13.32;11.93;;;;;;;18.28;85.88;101383.63;6234915;28;20236;-69
2023/06/17 01:59:35;;;;;;;15.48;13.88;;;;;;;18.20;86.24;101394.56;6233232;28;20239;-69
2023/06/17 02:02:55;;;;;;;16.08;12.43;;;;;;;18.24;86.60;101387.72;6233843;28;20228;-69
2023/06/17 02:06:18;;;;;;;16.85;15.05;;;;;;;18.43;86.66;101378.31;6235014;28;20239;-69
2023/06/17 02:09:39;;;;;;;15.75;13.27;;;;;;;18.42;86.58;101380.19;6232328;28;20311;-69
2023/06/17 02:13:03;;;;;;;14.05;12.05;;;;;;;18.65;86.18;101383.91;6240513;28;20446;-68
2023/06/17 02:16:26;;;;;;;19.65;13.05;;;;;;;18.66;85.55;101384.75;6239489;28;20239;-69
2023/06/17 02:19:47;;;;;;;15.35;12.18;;;;;;;18.61;85.11;101381.72;6241763;28;20227;-69
2023/06/17 02:23:08;;;;;;;13.43;12.05;;;;;;;18.63;85.14;101380.50;6235710;28;20235;-70
2023/06/17 02:26:31;;;;;;;13.13;11.82;;;;;;;18.60;85.04;101380.84;6235725;28;20231;-69
2023/06/17 02:29:52;;;;;;;12.23;10.88;;;;;;;18.48;85.39;101386.88;6239600;28;20310;-69
2023/06/17 02:33:17;;;;;;;16.27;12.30;;;;;;;18.63;85.43;101383.22;6237972;28;20826;-69
2023/06/17 02:36:40;;;;;;;18.33;13.20;;;;;;;18.71;85.10;101387.81;6240093;28;20547;-69
2023/06/17 02:40:02;;;;;;;18.35;13.20;;;;;;;18.71;84.83;101390.56;6226783;28;20263;-69
2023/06/17 02:43:23;;;;;;;12.98;11.80;;;;;;;18.62;84.87;101383.41;6229653;28;20247;-69
2023/06/17 02:46:44;;;;;;;17.00;12.70;;;;;;;18.70;84.96;101380.63;6239355;28;20294;-69
2023/06/17 02:50:07;;;;;;;11.85;10.25;;;;;;;18.75;84.86;101381.84;6234858;28;20239;-69
2023/06/17 02:53:29;;;;;;;12.85;11.40;;;;;;;18.81;84.82;101383.84;6237441;28;20228;-69
2023/06/17 02:56:50;;;;;;;12.88;11.55;;;;;;;18.84;84.52;101379.91;6236902;28;20232;-69
2023/06/17 03:00:13;;;;;;;12.18;10.90;;;;;;;18.87;84.31;101383.16;6232142;28;20232;-70
2023/06/17 03:03:37;;;;;;;15.20;13.27;;;;;;;18.80;84.14;101381.28;6227800;28;20236;-69
2023/06/17 03:06:59;;;;;;;16.38;14.77;;;;;;;18.80;84.12;101373.09;6246265;28;21084;-69
2023/06/17 03:10:20;;;;;;;16.42;13.45;;;;;;;18.82;84.21;101379.22;6227578;28;20236;-69
2023/06/17 03:13:48;;;;;;;19.20;13.63;;;;;;;18.91;83.97;101372.69;6226224;28;20669;-68
2023/06/17 03:17:17;;;;;;;16.05;13.88;;;;;;;18.75;83.82;101373.66;6224878;28;20759;-69
2023/06/17 03:20:38;;;;;;;12.82;11.25;;;;;;;18.84;84.01;101374.44;6233076;28;20858;-69
2023/06/17 03:24:01;;;;;;;19.25;13.75;;;;;;;18.73;84.09;101372.94;6239303;28;20253;-69
2023/06/17 03:27:25;;;;;;;15.95;13.65;;;;;;;18.73;84.22;101374.84;6219359;28;20228;-68
2023/06/17 03:30:46;;;;;;;14.98;12.30;;;;;;;18.80;84.20;101373.09;6229017;28;20240;-69
2023/06/17 03:34:09;;;;;;;13.95;12.63;;;;;;;18.71;84.32;101380.47;6238495;28;20240;-70
2023/06/17 03:37:29;;;;;;;14.60;13.07;;;;;;;18.74;84.13;101373.78;6232921;28;20609;-69
2023/06/17 03:40:52;;;;;;;20.75;13.95;;;;;;;18.83;84.16;101373.59;6230550;28;20228;-68
2023/06/17 03:44:14;;;;;;;16.00;13.55;;;;;;;18.63;84.21;101374.19;6232360;28;20288;-69
2023/06/17 03:47:35;;;;;;;18.15;14.88;;;;;;;18.86;84.37;101372.38;6241154;28;20610;-69
2023/06/17 03:50:58;;;;;;;16.00;14.10;;;;;;;18.81;84.11;101377.53;6218419;28;20314;-70
2023/06/17 03:54:19;;;;;;;13.85;12.48;;;;;;;18.79;83.85;101377.72;6235983;28;20224;-68
2023/06/17 03:57:42;;;;;;;14.88;13.38;;;;;;;18.33;84.47;101383.97;6223520;28;20314;-70
2023/06/17 04:01:02;;;;;;;12.60;11.27;;;;;;;18.53;84.79;101385.31;6228317;28;20236;-70
2023/06/17 04:04:23;;;;;;;13.63;12.20;;;;;;;18.32;85.09;101377.66;6231389;28;20810;-70
2023/06/17 04:07:46;;;;;;;13.60;12.30;;;;;;;18.60;85.13;101372.66;6232303;28;20232;-69
2023/06/17 04:11:08;;;;;;;14.45;12.27;;;;;;;18.56;84.65;101376.78;6229591;28;20251;-69
2023/06/17 04:14:30;;;;;;;14.80;12.98;;;;;;;18.78;84.87;101377.88;6230848;28;20228;-69
2023/06/17 04:17:50;;;;;;;12.30;11.00;;;;;;;18.78;84.78;101383.34;6236568;28;20239;-69
2023/06/17 04:21:12;;;;;;;14.80;12.90;;;;;;;18.87;84.47;101380.41;6228829;28;20358;-69
2023/06/17 04:24:33;;;;;;;14.15;12.20;;;;;;;18.81;84.37;101381.13;6220887;28;20239;-69
2023/06/17 04:27:56;;;;;;;17.60;11.45;;;;;;;18.78;84.27;101377.88;6232036;28;20231;-70
2023/06/17 04:31:19;;;;;;;15.48;11.57;;;;;;;18.76;84.28;101380.78;6230544;28;20247;-70
2023/06/17 04:34:42;;;;;;;15.15;11.27;;;;;;;18.11;84.89;101379.22;6226650;28;21094;-69
2023/06/17 04:38:04;;;;;;;14.10;12.15;;;;;;;18.31;85.92;101386.03;6222199;28;20231;-71
2023/06/17 04:41:26;;;;;;;15.05;11.40;;;;;;;18.57;86.13;101381.19;6226581;28;20561;-70
2023/06/17 04:44:48;;;;;;;16.77;11.57;;;;;;;18.66;85.56;101388.34;6228227;28;20236;-69
2023/06/17 04:48:11;;;;;;;15.38;11.07;;;;;;;18.86;85.13;101384.16;6234224;28;20236;-71
2023/06/17 04:51:37;;;;;;;13.15;11.65;;;;;;;18.73;84.93;101392.06;6239670;28;20259;-70
2023/06/17 04:54:57;;;;;;;17.00;12.32;;;;;;;18.87;84.66;101385.88;6238084;28;20255;-70
2023/06/17 04:58:19;;;;;;;15.32;12.50;;;;;;;19.07;84.26;101384.41;6236443;28;20683;-70
2023/06/17 05:01:42;;;;;;;12.38;10.38;;;;;;;19.12;83.50;101381.13;6229857;28;20698;-70
2023/06/17 05:05:06;;;;;;;17.70;12.20;;;;;;;19.04;83.03;101378.47;6234390;28;20602;-69
2023/06/17 05:08:28;;;;;;;13.73;12.32;;;;;;;19.13;83.04;101386.41;6206282;28;20526;-69
2023/06/17 05:11:49;;;;;;;12.70;11.48;;;;;;;19.13;82.66;101383.69;6232273;28;20232;-70
2023/06/17 05:15:10;;;;;;;18.52;10.85;;;;;;;19.17;83.15;101392.38;6227851;28;20228;-70
2023/06/17 05:18:31;;;;;;;12.10;10.80;;;;;;;19.10;82.87;101384.06;6230060;28;20232;-69
2023/06/17 05:21:54;;;;;;;13.05;11.80;;;;;;;19.31;82.61;101377.09;6220662;28;20232;-69
2023/06/17 05:25:19;;;;;;;14.85;12.80;;;;;;;19.14;82.64;101385.41;6234798;28;20236;-70
2023/06/17 05:28:41;;;;;;;21.40;14.63;;;;;;;19.04;82.77;101387.50;6251337;28;20223;-70
2023/06/17 05:32:02;;;;;;;18.75;14.10;;;;;;;19.02;82.76;101389.53;6247579;28;20747;-69
2023/06/17 05:35:23;;;;;;;17.85;15.35;;;;;;;19.28;83.00;101385.66;6240950;28;20263;-69
2023/06/17 05:38:46;;;;;;;17.63;14.10;;;;;;;19.35;82.42;101389.41;6245382;28;20232;-69
2023/06/17 05:42:07;;;;;;;16.33;13.38;;;;;;;19.37;82.31;101392.81;6238711;28;20235;-71
2023/06/17 05:45:28;;;;;;;20.17;13.40;;;;;;;19.44;82.21;101396.53;6237229;28;20231;-69
2023/06/17 05:48:49;;;;;;;20.40;14.52;;;;;;;19.50;81.83;101401.28;6239912;28;20266;-70
2023/06/17 05:52:11;;;;;;;20.55;16.08;;;;;;;19.49;81.56;101396.84;6227156;28;20227;-69
2023/06/17 05:55:33;;;;;;;18.63;14.50;;;;;;;19.48;81.45;101396.00;6236467;28;20327;-70
2023/06/17 05:58:55;;;;;;;17.42;13.32;;;;;;;19.53;81.55;101392.69;6239788;28;20239;-70
2023/06/17 06:02:24;;;;;;;15.80;13.38;;;;;;;19.60;81.55;101390.94;6223765;28;20228;-69
2023/06/17 06:05:45;;;;;;;26.00;16.10;;;;;;;19.55;81.20;101399.69;6238584;28;20239;-69
2023/06/17 06:09:06;;;;;;;18.25;14.68;;;;;;;19.59;81.29;101400.19;6235292;28;20232;-69
2023/06/17 06:12:29;;;;;;;16.48;14.52;;;;;;;19.58;81.30;101413.03;6218433;28;20236;-69
2023/06/17 06:15:51;;;;;;;19.85;14.27;;;;;;;19.67;81.40;101413.81;6240705;28;20240;-69
2023/06/17 06:19:12;;;;;;;17.90;15.00;;;;;;;19.75;80.99;101416.50;6221406;28;20239;-69
2023/06/17 06:22:34;;;;;;;20.70;14.70;;;;;;;19.71;80.76;101415.16;6224828;28;20239;-70
2023/06/17 06:25:55;;;;;;;17.83;13.93;;;;;;;19.49;80.46;101419.56;6228222;28;20263;-69
2023/06/17 06:29:17;;;;;;;17.65;15.85;;;;;;;19.26;81.60;101423.25;6233069;28;20349;-69
2023/06/17 06:32:39;;;;;;;17.92;15.15;;;;;;;19.47;81.67;101423.50;6227829;28;20852;-70
2023/06/17 06:36:00;;;;;;;17.02;15.35;;;;;;;18.94;83.06;101418.81;6231348;28;20253;-70
2023/06/17 06:39:21;;;;;;;18.23;14.38;;;;;;;19.14;83.60;101423.69;6242723;28;20244;-70
2023/06/17 06:42:42;;;;;;;18.88;15.50;;;;;;;19.33;83.29;101427.00;6223486;28;20240;-70
2023/06/17 06:46:13;;;;;;;17.17;12.95;;;;;;;19.40;83.35;101430.75;6226146;28;20944;-69
2023/06/17 06:49:35;;;;;;;15.90;13.00;;;;;;;19.75;82.49;101427.44;6228264;28;20327;-69
2023/06/17 06:52:56;;;;;;;16.13;13.90;;;;;;;19.96;81.72;101435.84;6217523;28;20552;-70
2023/06/17 06:56:18;;;;;;;15.55;13.48;;;;;;;20.26;80.60;101437.66;6231090;28;20248;-69
2023/06/17 06:59:40;;;;;;;16.73;13.65;;;;;;;20.30;79.51;101449.94;6218764;28;20634;-69
2023/06/17 07:03:02;;;;;;;17.27;13.73;;;;;;;20.44;78.84;101451.84;6236339;28;20315;-70
2023/06/17 07:06:23;;;;;;;15.60;14.02;;;;;;;20.57;78.18;101449.31;6232716;28;20228;-69
2023/06/17 07:09:45;;;;;;;17.45;13.55;;;;;;;20.53;77.76;101452.63;6222681;28;20270;-69
2023/06/17 07:13:07;;;;;;;19.88;15.15;;;;;;;20.37;77.54;101445.41;6219684;28;20232;-69
2023/06/17 07:16:28;;;;;;;17.25;14.32;;;;;;;20.20;77.78;101445.75;6201382;28;20232;-69
2023/06/17 07:19:51;;;;;;;19.95;15.85;;;;;;;19.99;78.87;101442.81;6237699;28;20235;-69
2023/06/17 07:23:12;;;;;;;16.48;14.73;;;;;;;20.06;79.10;101446.53;6217640;28;20235;-69
2023/06/17 07:26:32;;;;;;;14.60;12.68;;;;;;;20.12;79.25;101448.53;6219349;28;20259;-70
2023/06/17 07:29:54;;;;;;;21.63;14.52;;;;;;;20.31;79.15;101453.53;6233832;28;20228;-70
2023/06/17 07:33:16;;;;;;;22.52;20.13;;;;;;;20.38;78.93;101449.84;6230877;28;20228;-70
2023/06/17 07:36:38;;;;;;;19.77;16.40;;;;;;;20.63;78.22;101458.69;6235563;28;20495;-70
2023/06/17 07:40:00;;;;;;;18.00;16.20;;;;;;;21.08;77.26;101452.19;6215193;28;20660;-73
2023/06/17 07:43:21;;;;;;;17.45;15.65;;;;;;;21.33;76.25;101453.59;6209158;28;20867;-70
2023/06/17 07:46:42;;;;;;;18.98;14.27;;;;;;;21.60;74.97;101455.63;6221840;28;20262;-69
2023/06/17 07:50:04;;;;;;;20.63;13.95;;;;;;;21.75;74.18;101459.16;6205176;28;20263;-69
2023/06/17 07:53:26;;;;;;;16.45;14.48;;;;;;;21.89;73.26;101461.03;6210527;28;20239;-68
2023/06/17 07:56:47;;;;;;;15.50;13.35;;;;;;;21.90;72.66;101450.91;6233808;28;20240;-68
2023/06/17 08:00:12;;;;;;;25.52;14.77;;;;;;;22.14;71.93;101454.09;6202075;28;20338;-70
2023/06/17 08:03:33;;;;;;;17.15;13.63;;;;;;;21.37;72.18;101449.41;6215267;28;20227;-69
2023/06/17 08:06:54;;;;;;;17.55;14.00;;;;;;;21.32;74.00;101447.25;6234363;28;20521;-69
2023/06/17 08:10:16;;;;;;;18.73;12.90;;;;;;;21.78;73.57;101441.47;6198740;28;20231;-70
2023/06/17 08:13:37;;;;;;;29.98;13.60;;;;;;;22.26;72.21;101443.41;6222702;28;20494;-70
2023/06/17 08:16:58;;;;;;;14.32;12.88;;;;;;;22.15;71.94;101446.72;6239601;28;20330;-69
2023/06/17 08:20:20;;;;;;;14.82;11.85;;;;;;;22.29;71.18;101443.03;6215354;28;20243;-70
2023/06/17 08:23:41;;;;;;;16.60;13.15;;;;;;;22.26;70.53;101448.91;6224577;28;20232;-69
2023/06/17 08:27:06;;;;;;;15.15;13.55;;;;;;;21.85;71.05;101437.75;6244898;28;20252;-69
2023/06/17 08:30:27;;;;;;;14.10;12.60;;;;;;;22.18;70.91;101451.81;6236041;28;21195;-69
2023/06/17 08:33:48;;;;;;;16.52;14.95;;;;;;;20.35;73.29;101461.19;6232986;28;20220;-69
2023/06/17 08:37:08;;;;;;;15.20;12.30;;;;;;;20.77;75.21;101448.78;6238361;28;20228;-69
2023/06/17 08:40:30;;;;;;;14.93;13.52;;;;;;;21.45;73.96;101443.81;6228953;28;20228;-69
2023/06/17 08:43:55;;;;;;;12.00;10.73;;;;;;;22.42;72.27;101436.78;6238466;28;20243;-69
2023/06/17 08:47:17;;;;;;;20.70;13.43;;;;;;;22.51;69.81;101441.09;6215878;28;20609;-70
2023/06/17 08:50:39;;;;;;;12.27;10.93;;;;;;;22.80;69.22;101443.66;6231929;28;20256;-69
2023/06/17 08:54:01;;;;;;;14.20;11.02;;;;;;;23.07;67.87;101437.28;6233149;28;20237;-69
2023/06/17 08:57:22;;;;;;;11.70;10.57;;;;;;;23.41;67.44;101444.63;6222757;28;20235;-70
2023/06/17 09:00:44;;;;;;;13.93;10.73;;;;;;;23.40;66.80;101440.19;6230291;28;20236;-69
2023/06/17 09:04:06;;;;;;;14.32;11.35;;;;;;;22.92;66.84;101445.66;6203120;28;20621;-69
2023/06/17 09:07:27;;;;;;;10.10;8.63;;;;;;;23.26;66.99;101450.25;6236274;28;20612;-69
2023/06/17 09:10:48;;;;;;;13.05;11.13;;;;;;;22.65;66.94;101442.94;6227472;28;20223;-68
2023/06/17 09:14:09;;;;;;;13.18;10.55;;;;;;;23.17;66.79;101440.47;6230505;28;20232;-69
2023/06/17 09:17:32;;;;;;;10.63;9.25;;;;;;;24.00;65.48;101442.88;6235629;28;20235;-70
2023/06/17 09:20:55;;;;;;;12.38;8.55;;;;;;;24.37;63.61;101442.31;6226590;28;20231;-70
2023/06/17 09:24:16;;;;;;;12.68;9.80;;;;;;;22.61;63.86;101447.94;6224395;28;20236;-69
2023/06/17 09:27:37;;;;;;;13.07;9.32;;;;;;;22.89;66.15;101453.44;6235674;28;20236;-69
2023/06/17 09:31:04;;;;;;;13.82;10.10;;;;;;;23.62;64.27;101453.59;6227309;28;20232;-69
2023/06/17 09:34:26;;;;;;;10.40;9.45;;;;;;;24.00;63.10;101442.03;6232210;28;20239;-69
2023/06/17 09:37:50;;;;;;;8.80;7.13;;;;;;;24.28;62.62;101431.72;6238169;28;20240;-69
2023/06/17 09:41:15;;;;;;;11.65;10.20;;;;;;;23.98;62.83;101438.63;6225669;28;20585;-70
2023/06/17 09:44:37;;;;;;;12.85;11.55;;;;;;;24.19;62.30;101441.25;6225286;28;20236;-68
2023/06/17 09:48:05;;;;;;;10.23;8.50;;;;;;;24.04;63.06;101437.81;6236967;28;20261;-69
2023/06/17 09:51:37;;;;;;;11.13;9.20;;;;;;;24.53;61.77;101439.09;6230006;28;21354;-69
2023/06/17 09:54:59;;;;;;;12.38;9.75;;;;;;;24.07;60.94;101437.41;6224448;28;20617;-69
2023/06/17 09:58:22;;;;;;;15.23;10.20;;;;;;;22.31;64.74;101440.06;6200245;28;20231;-67
2023/06/17 10:01:43;;;;;;;10.77;9.38;;;;;;;22.44;65.94;101441.06;6203557;28;20232;-68
2023/06/17 10:05:04;;;;;;;10.88;8.80;;;;;;;22.34;66.42;101437.81;6231889;28;20259;-68
2023/06/17 10:08:28;;;;;;;10.27;8.95;;;;;;;23.42;63.98;101436.19;6227398;28;20783;-69
2023/06/17 10:11:51;;;;;;;11.98;8.55;;;;;;;23.72;62.84;101437.53;6234717;28;20319;-69
2023/06/17 10:15:13;;;;;;;10.45;7.35;;;;;;;24.51;60.96;101432.13;6216913;28;21745;-68
2023/06/17 10:18:37;;;;;;;7.82;7.03;;;;;;;24.40;59.05;101421.75;6235453;28;20228;-69
2023/06/17 10:22:00;;;;;;;11.18;7.55;;;;;;;24.27;58.46;101436.38;6233107;28;20751;-69
2023/06/17 10:25:24;;;;;;;8.90;8.02;;;;;;;24.42;58.54;101428.75;6218487;28;20227;-69
2023/06/17 10:28:57;;;;;;;9.70;8.40;;;;;;;24.54;58.63;101420.66;6234965;28;20212;-67
2023/06/17 10:32:19;;;;;;;7.15;6.28;;;;;;;24.64;58.49;101423.00;6231843;28;20714;-68
2023/06/17 10:35:41;;;;;;;6.65;6.10;;;;;;;25.31;57.65;101426.19;6242564;28;20438;-67
2023/06/17 10:39:07;;;;;;;9.73;8.00;;;;;;;25.42;56.24;101430.22;6236485;28;22415;-69
2023/06/17 10:42:29;;;;;;;6.88;5.40;;;;;;;25.28;57.21;101421.13;6234337;28;20346;-69
2023/06/17 10:45:54;;;;;;;8.82;7.78;;;;;;;25.91;55.92;101428.44;6238701;28;20767;-69
2023/06/17 10:49:16;;;;;;;6.90;5.60;;;;;;;26.41;53.83;101421.06;6233611;28;20223;-67
2023/06/17 10:52:39;;;;;;;6.28;5.53;;;;;;;26.23;53.64;101433.97;6229716;28;20239;-67
2023/06/17 10:56:02;;;;;;;7.07;6.43;;;;;;;26.04;53.54;101425.59;6206708;28;20232;-68
2023/06/17 10:59:28;;;;;;;10.10;6.10;;;;;;;25.95;54.16;101424.16;6228577;28;20235;-67
2023/06/17 11:02:49;;;;;;;7.00;6.22;;;;;;;26.51;53.11;101415.88;6228663;28;20518;-67
2023/06/17 11:06:10;;;;;;;6.20;5.50;;;;;;;24.84;54.48;101415.53;6230780;28;20236;-66
2023/06/17 11:09:33;;;;;;;6.82;5.10;;;;;;;26.03;54.32;101412.81;6227972;28;20444;-67
2023/06/17 11:12:54;;;;;;;6.35;5.80;;;;;;;26.09;51.82;101411.13;6231041;28;20228;-67
2023/06/17 11:16:16;;;;;;;9.02;7.13;;;;;;;24.51;55.49;101410.91;6229507;28;20227;-66
2023/06/17 11:19:37;;;;;;;8.70;7.80;;;;;;;23.59;58.41;101409.13;6224295;28;20228;-66
2023/06/17 11:22:58;;;;;;;8.63;6.57;;;;;;;24.53;56.23;101405.19;6223061;28;20248;-67
2023/06/17 11:26:19;;;;;;;6.75;5.75;;;;;;;25.45;54.24;101400.25;6236841;28;20228;-69
2023/06/17 11:29:41;;;;;;;6.38;5.47;;;;;;;25.95;52.63;101402.06;6221880;28;20475;-68
2023/06/17 11:33:05;;;;;;;6.60;5.97;;;;;;;26.01;51.94;101392.84;6234629;28;21612;-67
2023/06/17 11:36:26;;;;;;;5.60;4.85;;;;;;;26.72;52.03;101398.03;6242102;28;20228;-68
2023/06/17 11:39:47;;;;;;;6.97;5.03;;;;;;;27.69;49.30;101387.63;6233915;28;20266;-68
2023/06/17 11:43:08;;;;;;;6.50;5.82;;;;;;;27.50;48.44;101388.75;6231432;28;20247;-67
2023/06/17 11:46:29;;;;;;;6.82;6.22;;;;;;;26.33;50.93;101387.31;6219011;28;20232;-67
2023/06/17 11:49:51;;;;;;;9.02;6.60;;;;;;;26.17;51.55;101383.22;6243034;28;20672;-65
2023/06/17 11:53:12;;;;;;;6.85;5.40;;;;;;;26.94;51.54;101382.66;6241682;28;20232;-67
2023/06/17 11:56:33;;;;;;;6.90;5.90;;;;;;;27.19;49.24;101379.78;6246026;28;20319;-67
2023/06/17 12:00:00;;;;;;;6.20;5.38;;;;;;;25.70;50.34;101369.94;6229823;28;20224;-67
2023/06/17 12:03:22;;;;;;;6.47;5.97;;;;;;;26.50;48.99;101369.91;6226005;28;20262;-68
2023/06/17 12:06:44;;;;;;;5.88;5.38;;;;;;;27.68;48.22;101358.22;6206014;28;20240;-67
2023/06/17 12:10:06;;;;;;;9.13;6.78;;;;;;;27.98;47.41;101366.53;6219494;28;20597;-67
2023/06/17 12:13:38;;;;;;;6.50;5.75;;;;;;;27.61;49.21;101360.25;6230115;28;20251;-68
2023/06/17 12:16:59;;;;;;;6.38;5.70;;;;;;;28.23;48.15;101356.06;6213228;28;20227;-69
2023/06/17 12:20:21;;;;;;;8.82;5.88;;;;;;;27.65;47.86;101355.94;6220168;28;20231;-67
2023/06/17 12:23:44;;;;;;;4.97;4.38;;;;;;;28.65;48.31;101345.72;6220075;28;20244;-67
2023/06/17 12:27:08;;;;;;;8.02;6.15;;;;;;;28.33;46.70;101342.44;6213389;28;20691;-67
2023/06/17 12:30:29;;;;;;;7.32;6.15;;;;;;;29.02;46.05;101326.78;6227663;28;20826;-67
2023/06/17 12:33:50;;;;;;;5.30;4.60;;;;;;;29.23;44.85;101328.09;6222750;28;20312;-67
2023/06/17 12:37:12;;;;;;;5.38;4.97;;;;;;;28.96;44.96;101336.94;6215356;28;20243;-68
2023/06/17 12:40:34;;;;;;;8.98;7.20;;;;;;;28.74;45.99;101329.53;6241538;28;20688;-66
2023/06/17 12:43:55;;;;;;;7.10;6.50;;;;;;;27.58;47.32;101333.00;6221771;28;21705;-66
2023/06/17 12:47:16;;;;;;;6.25;5.70;;;;;;;27.83;47.96;101337.56;6223202;28;20331;-66
2023/06/17 12:50:37;;;;;;;6.65;6.07;;;;;;;27.24;48.45;101330.94;6239209;28;20248;-66
2023/06/17 12:53:58;;;;;;;5.30;4.53;;;;;;;28.23;46.95;101322.78;6233600;28;20240;-68
2023/06/17 12:57:20;;;;;;;6.00;5.35;;;;;;;28.57;45.87;101323.03;6236921;28;20617;-67
2023/06/17 13:00:41;;;;;;;7.35;4.78;;;;;;;28.69;45.42;101309.97;6227537;28;20232;-67
2023/06/17 13:04:02;;;;;;;5.75;5.18;;;;;;;27.81;47.02;101317.53;6231409;28;20240;-67
2023/06/17 13:07:22;;;;;;;6.18;5.63;;;;;;;28.80;46.47;101307.19;6216631;28;20236;-67
2023/06/17 13:10:43;;;;;;;7.18;6.28;;;;;;;27.76;47.37;101309.94;6229045;28;20263;-67
2023/06/17 13:14:06;;;;;;;5.88;5.38;;;;;;;25.77;50.50;101318.22;6232854;28;20237;-66
2023/06/17 13:17:27;;;;;;;5.50;5.03;;;;;;;26.19;51.51;101313.84;6221819;28;20706;-69
2023/06/17 13:20:49;;;;;;;4.93;4.40;;;;;;;26.50;51.78;101314.59;6230261;28;20263;-68
2023/06/17 13:24:09;;;;;;;6.22;5.60;;;;;;;26.32;52.75;101325.66;6224987;28;20273;-67
2023/06/17 13:27:31;;;;;;;9.20;6.38;;;;;;;26.06;54.89;101332.22;6227515;28;20228;-70
2023/06/17 13:31:01;;;;;;;6.10;5.53;;;;;;;25.67;55.35;101345.53;6229328;28;20244;-76
2023/06/17 13:34:22;;;;;;;5.65;4.95;;;;;;;25.51;56.81;101348.81;6229236;28;20749;-74
2023/06/17 13:37:43;;;;;;;6.53;5.93;;;;;;;24.65;58.56;101341.94;6201162;28;20232;-74
2023/06/17 13:41:04;;;;;;;4.32;3.92;;;;;;;24.74;58.03;101340.69;6227341;28;20547;-72
2023/06/17 13:44:24;;;;;;;7.93;6.15;;;;;;;25.25;59.37;101333.22;6232030;28;20235;-72
2023/06/17 13:47:47;;;;;;;7.00;4.53;;;;;;;25.64;58.70;101335.75;6212941;28;20247;-70
2023/06/17 13:51:08;;;;;;;4.68;4.22;;;;;;;25.16;59.83;101329.88;6227558;28;20232;-74
2023/06/17 13:54:28;;;;;;;5.28;4.40;;;;;;;25.04;60.13;101331.63;6225385;28;20244;-69
2023/06/17 13:57:50;;;;;;;68.55;61.90;;;;;;;24.74;61.66;101324.94;6232735;28;21820;-70
2023/06/17 14:01:10;;;;;;;8.13;6.25;;;;;;;24.38;62.11;101330.13;6228601;28;20244;-71
2023/06/17 14:04:33;;;;;;;9.00;6.05;;;;;;;23.76;63.76;101320.38;6228654;28;20251;-70
2023/06/17 14:07:54;;;;;;;4.53;4.10;;;;;;;23.62;62.88;101317.84;6227226;28;20232;-70
2023/06/17 14:11:15;;;;;;;6.15;5.65;;;;;;;24.00;63.51;101309.78;6237353;28;20243;-70
2023/06/17 14:14:36;;;;;;;7.60;5.65;;;;;;;23.99;63.28;101306.19;6238145;28;20252;-71
2023/06/17 14:17:57;;;;;;;6.45;5.78;;;;;;;24.52;63.56;101313.34;6237551;28;20235;-71
2023/06/17 14:21:27;;;;;;;8.70;5.47;;;;;;;24.76;62.89;101316.47;6243440;28;20830;-71
2023/06/17 14:24:48;;;;;;;5.88;5.20;;;;;;;25.10;62.07;101310.56;6241808;28;20235;-72
2023/06/17 14:28:09;;;;;;;5.47;4.97;;;;;;;24.46;62.67;101316.13;6230356;28;20236;-69
2023/06/17 14:31:30;;;;;;;5.70;4.97;;;;;;;24.67;62.80;101321.34;6230328;28;20236;-71
2023/06/17 14:34:51;;;;;;;6.88;6.22;;;;;;;23.82;64.06;101311.28;6235356;28;20232;-68
2023/06/17 14:38:14;;;;;;;7.47;6.57;;;;;;;23.62;65.03;101296.66;6233815;28;20236;-72
2023/06/17 14:41:35;;;;;;;10.60;5.90;;;;;;;23.18;64.54;101301.00;6231480;28;20236;-75
2023/06/17 14:44:56;;;;;;;15.23;5.88;;;;;;;23.49;64.90;101298.56;6225731;28;20609;-73
2023/06/17 14:48:17;;;;;;;6.30;5.70;;;;;;;23.32;65.28;101288.97;6223551;28;21710;-77
2023/06/17 14:51:38;;;;;;;9.40;5.78;;;;;;;24.23;63.61;101286.28;6228725;28;20235;-70
2023/06/17 14:55:00;;;;;;;7.70;6.05;;;;;;;24.74;61.36;101282.75;6239321;28;20244;-75
2023/06/17 14:58:20;;;;;;;14.88;6.05;;;;;;;24.82;60.60;101293.53;6231834;28;20751;-70
2023/06/17 15:01:41;;;;;;;8.07;5.80;;;;;;;25.00;59.57;101288.13;6220902;28;20232;-73
2023/06/17 15:05:02;;;;;;;7.65;6.90;;;;;;;24.72;60.85;101290.38;6237196;28;20227;-72
2023/06/17 15:08:23;;;;;;;8.45;5.97;;;;;;;24.90;58.48;101296.91;6230921;28;20240;-70
2023/06/17 15:11:45;;;;;;;5.90;5.32;;;;;;;25.68;58.38;101303.03;6233050;28;20232;-69
2023/06/17 15:15:07;;;;;;;5.82;5.22;;;;;;;26.38;55.55;101307.28;6236477;28;20757;-70
2023/06/17 15:18:31;;;;;;;5.60;5.10;;;;;;;26.69;53.67;101301.59;6232453;28;20236;-72
2023/06/17 15:21:52;;;;;;;5.65;4.20;;;;;;;25.92;51.87;101303.03;6233557;28;20680;-71
2023/06/17 15:25:13;;;;;;;4.22;3.83;;;;;;;25.70;52.46;101289.84;6232026;28;20231;-72